sensor_id;sensor_type;location;lat;lon;timestamp;pressure;altitude;pressure_sealevel;temperature
8227;BMP180;4154;48.810;9.012;2022-07-06T00:01:46;97729.00;;;18.80
8227;BMP180;4154;48.810;9.012;2022-07-06T00:04:12;97722.00;;;18.80
8227;BMP180;4154;48.810;9.012;2022-07-06T00:06:38;97725.00;;;18.80
8227;BMP180;4154;48.810;9.012;2022-07-06T00:09:05;97728.00;;;18.80
8227;BMP180;4154;48.810;9.012;2022-07-06T00:11:32;97718.00;;;18.80
8227;BMP180;4154;48.810;9.012;2022-07-06T00:13:58;97715.00;;;18.90
8227;BMP180;4154;48.810;9.012;2022-07-06T00:16:24;97723.00;;;18.90
8227;BMP180;4154;48.810;9.012;2022-07-06T00:18:51;97720.00;;;18.90
8227;BMP180;4154;48.810;9.012;2022-07-06T00:21:17;97717.00;;;18.90
8227;BMP180;4154;48.810;9.012;2022-07-06T00:23:43;97704.00;;;18.90
8227;BMP180;4154;48.810;9.012;2022-07-06T00:26:10;97709.00;;;18.90
8227;BMP180;4154;48.810;9.012;2022-07-06T00:28:35;97706.00;;;18.90
8227;BMP180;4154;48.810;9.012;2022-07-06T00:31:01;97712.00;;;18.90
8227;BMP180;4154;48.810;9.012;2022-07-06T00:33:27;97713.00;;;18.90
8227;BMP180;4154;48.810;9.012;2022-07-06T00:35:53;97714.00;;;18.90
8227;BMP180;4154;48.810;9.012;2022-07-06T00:38:19;97723.00;;;18.80
8227;BMP180;4154;48.810;9.012;2022-07-06T00:40:44;97716.00;;;18.80
8227;BMP180;4154;48.810;9.012;2022-07-06T00:43:10;97725.00;;;18.70
8227;BMP180;4154;48.810;9.012;2022-07-06T00:45:36;97714.00;;;18.60
8227;BMP180;4154;48.810;9.012;2022-07-06T00:48:02;97724.00;;;18.50
8227;BMP180;4154;48.810;9.012;2022-07-06T00:50:28;97721.00;;;18.50
8227;BMP180;4154;48.810;9.012;2022-07-06T00:53:04;97716.00;;;18.40
8227;BMP180;4154;48.810;9.012;2022-07-06T00:55:35;97722.00;;;18.40
8227;BMP180;4154;48.810;9.012;2022-07-06T00:58:05;97714.00;;;18.30
8227;BMP180;4154;48.810;9.012;2022-07-06T01:00:32;97712.00;;;18.30
8227;BMP180;4154;48.810;9.012;2022-07-06T01:02:58;97708.00;;;18.30
8227;BMP180;4154;48.810;9.012;2022-07-06T01:05:24;97715.00;;;18.20
8227;BMP180;4154;48.810;9.012;2022-07-06T01:07:52;97710.00;;;18.20
8227;BMP180;4154;48.810;9.012;2022-07-06T01:10:20;97715.00;;;18.20
8227;BMP180;4154;48.810;9.012;2022-07-06T01:12:47;97707.00;;;18.30
8227;BMP180;4154;48.810;9.012;2022-07-06T01:15:20;97704.00;;;18.30
8227;BMP180;4154;48.810;9.012;2022-07-06T01:17:47;97703.00;;;18.10
8227;BMP180;4154;48.810;9.012;2022-07-06T01:20:19;97706.00;;;18.00
8227;BMP180;4154;48.810;9.012;2022-07-06T01:22:51;97696.00;;;18.10
8227;BMP180;4154;48.810;9.012;2022-07-06T01:25:18;97696.00;;;18.00
8227;BMP180;4154;48.810;9.012;2022-07-06T01:27:44;97690.00;;;18.00
8227;BMP180;4154;48.810;9.012;2022-07-06T01:30:13;97686.00;;;18.00
8227;BMP180;4154;48.810;9.012;2022-07-06T01:32:40;97690.00;;;18.00
8227;BMP180;4154;48.810;9.012;2022-07-06T01:35:10;97692.00;;;18.00
8227;BMP180;4154;48.810;9.012;2022-07-06T01:37:36;97684.00;;;17.90
8227;BMP180;4154;48.810;9.012;2022-07-06T01:40:05;97684.00;;;17.80
8227;BMP180;4154;48.810;9.012;2022-07-06T01:42:32;97687.00;;;17.80
8227;BMP180;4154;48.810;9.012;2022-07-06T01:44:58;97685.00;;;17.80
8227;BMP180;4154;48.810;9.012;2022-07-06T01:47:24;97685.00;;;17.80
8227;BMP180;4154;48.810;9.012;2022-07-06T01:49:50;97689.00;;;17.80
8227;BMP180;4154;48.810;9.012;2022-07-06T01:52:17;97688.00;;;17.70
8227;BMP180;4154;48.810;9.012;2022-07-06T01:54:43;97694.00;;;17.70
8227;BMP180;4154;48.810;9.012;2022-07-06T01:57:09;97696.00;;;17.70
8227;BMP180;4154;48.810;9.012;2022-07-06T01:59:35;97691.00;;;17.70
8227;BMP180;4154;48.810;9.012;2022-07-06T02:02:01;97691.00;;;17.60
8227;BMP180;4154;48.810;9.012;2022-07-06T02:04:27;97694.00;;;17.60
8227;BMP180;4154;48.810;9.012;2022-07-06T02:06:53;97707.00;;;17.60
8227;BMP180;4154;48.810;9.012;2022-07-06T02:09:19;97705.00;;;17.60
8227;BMP180;4154;48.810;9.012;2022-07-06T02:11:45;97713.00;;;17.60
8227;BMP180;4154;48.810;9.012;2022-07-06T02:14:11;97720.00;;;17.60
8227;BMP180;4154;48.810;9.012;2022-07-06T02:16:37;97706.00;;;17.60
8227;BMP180;4154;48.810;9.012;2022-07-06T02:19:03;97706.00;;;17.50
8227;BMP180;4154;48.810;9.012;2022-07-06T02:21:29;97700.00;;;17.50
8227;BMP180;4154;48.810;9.012;2022-07-06T02:23:55;97710.00;;;17.50
8227;BMP180;4154;48.810;9.012;2022-07-06T02:26:21;97700.00;;;17.50
8227;BMP180;4154;48.810;9.012;2022-07-06T02:28:46;97693.00;;;17.40
8227;BMP180;4154;48.810;9.012;2022-07-06T02:31:14;97693.00;;;17.40
8227;BMP180;4154;48.810;9.012;2022-07-06T02:33:41;97704.00;;;17.40
8227;BMP180;4154;48.810;9.012;2022-07-06T02:36:07;97701.00;;;17.40
8227;BMP180;4154;48.810;9.012;2022-07-06T02:38:33;97702.00;;;17.30
8227;BMP180;4154;48.810;9.012;2022-07-06T02:40:59;97716.00;;;17.20
8227;BMP180;4154;48.810;9.012;2022-07-06T02:43:25;97710.00;;;17.20
8227;BMP180;4154;48.810;9.012;2022-07-06T02:45:51;97708.00;;;17.20
8227;BMP180;4154;48.810;9.012;2022-07-06T02:48:17;97709.00;;;17.20
8227;BMP180;4154;48.810;9.012;2022-07-06T02:50:44;97707.00;;;17.20
8227;BMP180;4154;48.810;9.012;2022-07-06T02:53:10;97698.00;;;17.10
8227;BMP180;4154;48.810;9.012;2022-07-06T02:55:36;97714.00;;;17.00
8227;BMP180;4154;48.810;9.012;2022-07-06T02:58:02;97714.00;;;17.00
8227;BMP180;4154;48.810;9.012;2022-07-06T03:00:28;97711.00;;;17.00
8227;BMP180;4154;48.810;9.012;2022-07-06T03:02:54;97723.00;;;17.00
8227;BMP180;4154;48.810;9.012;2022-07-06T03:05:19;97716.00;;;17.00
8227;BMP180;4154;48.810;9.012;2022-07-06T03:07:45;97723.00;;;17.00
8227;BMP180;4154;48.810;9.012;2022-07-06T03:10:11;97725.00;;;16.90
8227;BMP180;4154;48.810;9.012;2022-07-06T03:12:37;97723.00;;;17.00
8227;BMP180;4154;48.810;9.012;2022-07-06T03:15:03;97734.00;;;16.90
8227;BMP180;4154;48.810;9.012;2022-07-06T03:17:29;97728.00;;;16.90
8227;BMP180;4154;48.810;9.012;2022-07-06T03:19:54;97732.00;;;16.90
8227;BMP180;4154;48.810;9.012;2022-07-06T03:22:20;97729.00;;;16.90
8227;BMP180;4154;48.810;9.012;2022-07-06T03:24:46;97724.00;;;16.80
8227;BMP180;4154;48.810;9.012;2022-07-06T03:27:12;97732.00;;;16.80
8227;BMP180;4154;48.810;9.012;2022-07-06T03:29:37;97731.00;;;16.80
8227;BMP180;4154;48.810;9.012;2022-07-06T03:32:04;97730.00;;;16.70
8227;BMP180;4154;48.810;9.012;2022-07-06T03:34:29;97735.00;;;16.70
8227;BMP180;4154;48.810;9.012;2022-07-06T03:36:55;97738.00;;;16.60
8227;BMP180;4154;48.810;9.012;2022-07-06T03:39:21;97741.00;;;16.70
8227;BMP180;4154;48.810;9.012;2022-07-06T03:41:47;97741.00;;;16.60
8227;BMP180;4154;48.810;9.012;2022-07-06T03:44:13;97739.00;;;16.50
8227;BMP180;4154;48.810;9.012;2022-07-06T03:46:39;97732.00;;;16.40
8227;BMP180;4154;48.810;9.012;2022-07-06T03:49:05;97729.00;;;16.40
8227;BMP180;4154;48.810;9.012;2022-07-06T03:51:31;97735.00;;;16.40
8227;BMP180;4154;48.810;9.012;2022-07-06T03:53:56;97744.00;;;16.40
8227;BMP180;4154;48.810;9.012;2022-07-06T03:56:22;97741.00;;;16.30
8227;BMP180;4154;48.810;9.012;2022-07-06T03:58:55;97746.00;;;16.40
8227;BMP180;4154;48.810;9.012;2022-07-06T04:01:21;97740.00;;;16.40
8227;BMP180;4154;48.810;9.012;2022-07-06T04:03:47;97739.00;;;16.30
8227;BMP180;4154;48.810;9.012;2022-07-06T04:06:13;97743.00;;;16.30
8227;BMP180;4154;48.810;9.012;2022-07-06T04:08:39;97744.00;;;16.30
8227;BMP180;4154;48.810;9.012;2022-07-06T04:11:05;97749.00;;;16.40
8227;BMP180;4154;48.810;9.012;2022-07-06T04:13:31;97747.00;;;16.40
8227;BMP180;4154;48.810;9.012;2022-07-06T04:15:57;97743.00;;;16.40
8227;BMP180;4154;48.810;9.012;2022-07-06T04:18:23;97755.00;;;16.40
8227;BMP180;4154;48.810;9.012;2022-07-06T04:20:50;97756.00;;;16.40
8227;BMP180;4154;48.810;9.012;2022-07-06T04:23:15;97743.00;;;16.40
8227;BMP180;4154;48.810;9.012;2022-07-06T04:25:41;97758.00;;;16.40
8227;BMP180;4154;48.810;9.012;2022-07-06T04:28:07;97762.00;;;16.30
8227;BMP180;4154;48.810;9.012;2022-07-06T04:30:33;97766.00;;;16.30
8227;BMP180;4154;48.810;9.012;2022-07-06T04:32:59;97761.00;;;16.40
8227;BMP180;4154;48.810;9.012;2022-07-06T04:35:25;97768.00;;;16.30
8227;BMP180;4154;48.810;9.012;2022-07-06T04:37:51;97766.00;;;16.30
8227;BMP180;4154;48.810;9.012;2022-07-06T04:40:16;97769.00;;;16.30
8227;BMP180;4154;48.810;9.012;2022-07-06T04:42:42;97775.00;;;16.40
8227;BMP180;4154;48.810;9.012;2022-07-06T04:45:09;97768.00;;;16.40
8227;BMP180;4154;48.810;9.012;2022-07-06T04:47:35;97770.00;;;16.40
8227;BMP180;4154;48.810;9.012;2022-07-06T04:50:02;97769.00;;;16.40
8227;BMP180;4154;48.810;9.012;2022-07-06T04:52:28;97779.00;;;16.40
8227;BMP180;4154;48.810;9.012;2022-07-06T04:54:55;97778.00;;;16.40
8227;BMP180;4154;48.810;9.012;2022-07-06T04:57:21;97774.00;;;16.40
8227;BMP180;4154;48.810;9.012;2022-07-06T04:59:47;97782.00;;;16.50
8227;BMP180;4154;48.810;9.012;2022-07-06T05:02:13;97780.00;;;16.50
8227;BMP180;4154;48.810;9.012;2022-07-06T05:04:39;97775.00;;;16.50
8227;BMP180;4154;48.810;9.012;2022-07-06T05:07:05;97777.00;;;16.50
8227;BMP180;4154;48.810;9.012;2022-07-06T05:09:31;97781.00;;;16.50
8227;BMP180;4154;48.810;9.012;2022-07-06T05:11:56;97783.00;;;16.50
8227;BMP180;4154;48.810;9.012;2022-07-06T05:14:22;97784.00;;;16.60
8227;BMP180;4154;48.810;9.012;2022-07-06T05:16:48;97784.00;;;16.60
8227;BMP180;4154;48.810;9.012;2022-07-06T05:19:14;97782.00;;;16.60
8227;BMP180;4154;48.810;9.012;2022-07-06T05:21:40;97787.00;;;16.60
8227;BMP180;4154;48.810;9.012;2022-07-06T05:24:06;97794.00;;;16.70
8227;BMP180;4154;48.810;9.012;2022-07-06T05:26:32;97795.00;;;16.70
8227;BMP180;4154;48.810;9.012;2022-07-06T05:28:58;97792.00;;;16.70
8227;BMP180;4154;48.810;9.012;2022-07-06T05:31:24;97791.00;;;16.70
8227;BMP180;4154;48.810;9.012;2022-07-06T05:33:50;97798.00;;;16.70
8227;BMP180;4154;48.810;9.012;2022-07-06T05:36:15;97798.00;;;16.70
8227;BMP180;4154;48.810;9.012;2022-07-06T05:38:41;97802.00;;;16.70
8227;BMP180;4154;48.810;9.012;2022-07-06T05:41:07;97797.00;;;16.70
8227;BMP180;4154;48.810;9.012;2022-07-06T05:43:36;97797.00;;;16.70
8227;BMP180;4154;48.810;9.012;2022-07-06T05:46:03;97794.00;;;16.70
8227;BMP180;4154;48.810;9.012;2022-07-06T05:48:29;97797.00;;;16.80
8227;BMP180;4154;48.810;9.012;2022-07-06T05:51:13;97796.00;;;16.80
8227;BMP180;4154;48.810;9.012;2022-07-06T05:53:39;97793.00;;;16.80
8227;BMP180;4154;48.810;9.012;2022-07-06T05:56:04;97793.00;;;16.80
8227;BMP180;4154;48.810;9.012;2022-07-06T05:58:30;97795.00;;;16.90
8227;BMP180;4154;48.810;9.012;2022-07-06T06:00:56;97803.00;;;16.90
8227;BMP180;4154;48.810;9.012;2022-07-06T06:03:22;97801.00;;;16.90
8227;BMP180;4154;48.810;9.012;2022-07-06T06:05:49;97800.00;;;16.90
8227;BMP180;4154;48.810;9.012;2022-07-06T06:08:15;97807.00;;;17.00
8227;BMP180;4154;48.810;9.012;2022-07-06T06:10:41;97794.00;;;17.00
8227;BMP180;4154;48.810;9.012;2022-07-06T06:13:07;97797.00;;;17.00
8227;BMP180;4154;48.810;9.012;2022-07-06T06:15:33;97802.00;;;17.10
8227;BMP180;4154;48.810;9.012;2022-07-06T06:17:59;97808.00;;;17.10
8227;BMP180;4154;48.810;9.012;2022-07-06T06:20:25;97801.00;;;17.10
8227;BMP180;4154;48.810;9.012;2022-07-06T06:22:54;97803.00;;;17.20
8227;BMP180;4154;48.810;9.012;2022-07-06T06:27:57;97808.00;;;17.20
8227;BMP180;4154;48.810;9.012;2022-07-06T06:30:23;97812.00;;;17.30
8227;BMP180;4154;48.810;9.012;2022-07-06T06:32:49;97813.00;;;17.30
8227;BMP180;4154;48.810;9.012;2022-07-06T06:35:15;97814.00;;;17.30
8227;BMP180;4154;48.810;9.012;2022-07-06T06:37:41;97813.00;;;17.40
8227;BMP180;4154;48.810;9.012;2022-07-06T06:40:08;97816.00;;;17.40
8227;BMP180;4154;48.810;9.012;2022-07-06T06:42:38;97812.00;;;17.40
8227;BMP180;4154;48.810;9.012;2022-07-06T06:45:05;97819.00;;;17.40
8227;BMP180;4154;48.810;9.012;2022-07-06T06:47:32;97821.00;;;17.40
8227;BMP180;4154;48.810;9.012;2022-07-06T06:49:58;97816.00;;;17.40
8227;BMP180;4154;48.810;9.012;2022-07-06T06:52:24;97820.00;;;17.50
8227;BMP180;4154;48.810;9.012;2022-07-06T06:54:50;97821.00;;;17.50
8227;BMP180;4154;48.810;9.012;2022-07-06T06:57:15;97821.00;;;17.50
8227;BMP180;4154;48.810;9.012;2022-07-06T06:59:41;97810.00;;;17.50
8227;BMP180;4154;48.810;9.012;2022-07-06T07:02:07;97815.00;;;17.50
8227;BMP180;4154;48.810;9.012;2022-07-06T07:04:33;97810.00;;;17.50
8227;BMP180;4154;48.810;9.012;2022-07-06T07:06:58;97814.00;;;17.50
8227;BMP180;4154;48.810;9.012;2022-07-06T07:09:25;97820.00;;;17.50
8227;BMP180;4154;48.810;9.012;2022-07-06T07:11:50;97812.00;;;17.60
8227;BMP180;4154;48.810;9.012;2022-07-06T07:14:16;97811.00;;;17.60
8227;BMP180;4154;48.810;9.012;2022-07-06T07:16:42;97810.00;;;17.60
8227;BMP180;4154;48.810;9.012;2022-07-06T07:19:08;97815.00;;;17.70
8227;BMP180;4154;48.810;9.012;2022-07-06T07:21:34;97800.00;;;17.70
8227;BMP180;4154;48.810;9.012;2022-07-06T07:24:02;97795.00;;;17.70
8227;BMP180;4154;48.810;9.012;2022-07-06T07:26:27;97799.00;;;17.70
8227;BMP180;4154;48.810;9.012;2022-07-06T07:28:53;97804.00;;;17.80
8227;BMP180;4154;48.810;9.012;2022-07-06T07:31:19;97803.00;;;17.80
8227;BMP180;4154;48.810;9.012;2022-07-06T07:33:47;97799.00;;;17.90
8227;BMP180;4154;48.810;9.012;2022-07-06T07:36:13;97801.00;;;17.90
8227;BMP180;4154;48.810;9.012;2022-07-06T07:38:39;97792.00;;;17.90
8227;BMP180;4154;48.810;9.012;2022-07-06T07:41:05;97799.00;;;17.90
8227;BMP180;4154;48.810;9.012;2022-07-06T07:43:32;97801.00;;;18.00
8227;BMP180;4154;48.810;9.012;2022-07-06T07:45:58;97796.00;;;18.00
8227;BMP180;4154;48.810;9.012;2022-07-06T07:48:24;97784.00;;;18.10
8227;BMP180;4154;48.810;9.012;2022-07-06T07:50:50;97792.00;;;18.10
8227;BMP180;4154;48.810;9.012;2022-07-06T07:53:16;97796.00;;;18.10
8227;BMP180;4154;48.810;9.012;2022-07-06T07:55:42;97800.00;;;18.20
8227;BMP180;4154;48.810;9.012;2022-07-06T07:58:07;97789.00;;;18.30
8227;BMP180;4154;48.810;9.012;2022-07-06T08:00:34;97796.00;;;18.30
8227;BMP180;4154;48.810;9.012;2022-07-06T08:03:00;97797.00;;;18.30
8227;BMP180;4154;48.810;9.012;2022-07-06T08:05:26;97801.00;;;18.40
8227;BMP180;4154;48.810;9.012;2022-07-06T08:07:52;97807.00;;;18.40
8227;BMP180;4154;48.810;9.012;2022-07-06T08:10:18;97804.00;;;18.40
8227;BMP180;4154;48.810;9.012;2022-07-06T08:12:44;97801.00;;;18.50
8227;BMP180;4154;48.810;9.012;2022-07-06T08:15:10;97807.00;;;18.50
8227;BMP180;4154;48.810;9.012;2022-07-06T08:17:36;97804.00;;;18.60
8227;BMP180;4154;48.810;9.012;2022-07-06T08:20:02;97806.00;;;18.70
8227;BMP180;4154;48.810;9.012;2022-07-06T08:22:28;97794.00;;;18.70
8227;BMP180;4154;48.810;9.012;2022-07-06T08:24:55;97798.00;;;18.80
8227;BMP180;4154;48.810;9.012;2022-07-06T08:27:21;97794.00;;;18.80
8227;BMP180;4154;48.810;9.012;2022-07-06T08:29:47;97801.00;;;18.80
8227;BMP180;4154;48.810;9.012;2022-07-06T08:32:12;97797.00;;;18.90
8227;BMP180;4154;48.810;9.012;2022-07-06T08:34:38;97798.00;;;18.90
8227;BMP180;4154;48.810;9.012;2022-07-06T08:37:04;97802.00;;;18.90
8227;BMP180;4154;48.810;9.012;2022-07-06T08:39:30;97796.00;;;19.00
8227;BMP180;4154;48.810;9.012;2022-07-06T08:41:58;97797.00;;;19.00
8227;BMP180;4154;48.810;9.012;2022-07-06T08:44:25;97801.00;;;19.00
8227;BMP180;4154;48.810;9.012;2022-07-06T08:46:54;97803.00;;;19.10
8227;BMP180;4154;48.810;9.012;2022-07-06T08:49:21;97802.00;;;19.10
8227;BMP180;4154;48.810;9.012;2022-07-06T08:51:47;97809.00;;;19.30
8227;BMP180;4154;48.810;9.012;2022-07-06T08:54:14;97804.00;;;19.30
8227;BMP180;4154;48.810;9.012;2022-07-06T08:56:40;97808.00;;;19.30
8227;BMP180;4154;48.810;9.012;2022-07-06T08:59:06;97812.00;;;19.30
8227;BMP180;4154;48.810;9.012;2022-07-06T09:01:35;97811.00;;;19.40
8227;BMP180;4154;48.810;9.012;2022-07-06T09:04:05;97815.00;;;19.40
8227;BMP180;4154;48.810;9.012;2022-07-06T09:06:33;97804.00;;;19.50
8227;BMP180;4154;48.810;9.012;2022-07-06T09:09:01;97810.00;;;19.50
8227;BMP180;4154;48.810;9.012;2022-07-06T09:11:30;97811.00;;;19.50
8227;BMP180;4154;48.810;9.012;2022-07-06T09:13:57;97811.00;;;19.50
8227;BMP180;4154;48.810;9.012;2022-07-06T09:16:28;97822.00;;;19.60
8227;BMP180;4154;48.810;9.012;2022-07-06T09:18:54;97816.00;;;19.60
8227;BMP180;4154;48.810;9.012;2022-07-06T09:21:32;97813.00;;;19.70
8227;BMP180;4154;48.810;9.012;2022-07-06T09:24:01;97822.00;;;19.80
8227;BMP180;4154;48.810;9.012;2022-07-06T09:26:28;97822.00;;;19.80
8227;BMP180;4154;48.810;9.012;2022-07-06T09:28:57;97822.00;;;20.00
8227;BMP180;4154;48.810;9.012;2022-07-06T09:31:23;97826.00;;;20.00
8227;BMP180;4154;48.810;9.012;2022-07-06T09:34:03;97819.00;;;20.00
8227;BMP180;4154;48.810;9.012;2022-07-06T09:36:45;97826.00;;;20.00
8227;BMP180;4154;48.810;9.012;2022-07-06T09:39:29;97828.00;;;20.00
8227;BMP180;4154;48.810;9.012;2022-07-06T09:42:01;97844.00;;;20.10
8227;BMP180;4154;48.810;9.012;2022-07-06T09:44:35;97840.00;;;20.10
8227;BMP180;4154;48.810;9.012;2022-07-06T09:47:07;97823.00;;;20.10
8227;BMP180;4154;48.810;9.012;2022-07-06T09:49:35;97836.00;;;20.00
8227;BMP180;4154;48.810;9.012;2022-07-06T09:52:08;97835.00;;;19.90
8227;BMP180;4154;48.810;9.012;2022-07-06T09:54:36;97834.00;;;20.00
8227;BMP180;4154;48.810;9.012;2022-07-06T09:57:03;97834.00;;;20.10
8227;BMP180;4154;48.810;9.012;2022-07-06T09:59:33;97839.00;;;20.20
8227;BMP180;4154;48.810;9.012;2022-07-06T10:02:03;97836.00;;;20.20
8227;BMP180;4154;48.810;9.012;2022-07-06T10:04:30;97843.00;;;20.30
8227;BMP180;4154;48.810;9.012;2022-07-06T10:06:57;97837.00;;;20.40
8227;BMP180;4154;48.810;9.012;2022-07-06T10:09:27;97844.00;;;20.40
8227;BMP180;4154;48.810;9.012;2022-07-06T10:11:57;97844.00;;;20.40
8227;BMP180;4154;48.810;9.012;2022-07-06T10:14:30;97843.00;;;20.40
8227;BMP180;4154;48.810;9.012;2022-07-06T10:16:59;97851.00;;;20.40
8227;BMP180;4154;48.810;9.012;2022-07-06T10:19:28;97858.00;;;20.30
8227;BMP180;4154;48.810;9.012;2022-07-06T10:21:58;97851.00;;;20.30
8227;BMP180;4154;48.810;9.012;2022-07-06T10:24:25;97848.00;;;20.40
8227;BMP180;4154;48.810;9.012;2022-07-06T10:26:52;97841.00;;;20.50
8227;BMP180;4154;48.810;9.012;2022-07-06T10:29:18;97851.00;;;20.60
8227;BMP180;4154;48.810;9.012;2022-07-06T10:31:47;97856.00;;;20.70
8227;BMP180;4154;48.810;9.012;2022-07-06T10:34:16;97847.00;;;20.70
8227;BMP180;4154;48.810;9.012;2022-07-06T10:36:48;97848.00;;;20.80
8227;BMP180;4154;48.810;9.012;2022-07-06T10:39:14;97849.00;;;20.80
8227;BMP180;4154;48.810;9.012;2022-07-06T10:41:59;97851.00;;;21.00
8227;BMP180;4154;48.810;9.012;2022-07-06T10:44:27;97848.00;;;21.00
8227;BMP180;4154;48.810;9.012;2022-07-06T10:46:56;97857.00;;;21.00
8227;BMP180;4154;48.810;9.012;2022-07-06T10:49:24;97853.00;;;21.10
8227;BMP180;4154;48.810;9.012;2022-07-06T10:51:51;97853.00;;;21.10
8227;BMP180;4154;48.810;9.012;2022-07-06T10:54:19;97859.00;;;21.10
8227;BMP180;4154;48.810;9.012;2022-07-06T10:56:48;97849.00;;;21.00
8227;BMP180;4154;48.810;9.012;2022-07-06T10:59:21;97844.00;;;21.00
8227;BMP180;4154;48.810;9.012;2022-07-06T11:02:19;97845.00;;;21.10
8227;BMP180;4154;48.810;9.012;2022-07-06T11:04:47;97847.00;;;21.00
8227;BMP180;4154;48.810;9.012;2022-07-06T11:07:19;97839.00;;;20.90
8227;BMP180;4154;48.810;9.012;2022-07-06T11:09:59;97844.00;;;20.90
8227;BMP180;4154;48.810;9.012;2022-07-06T11:12:26;97845.00;;;20.90
8227;BMP180;4154;48.810;9.012;2022-07-06T11:14:53;97841.00;;;20.80
8227;BMP180;4154;48.810;9.012;2022-07-06T11:17:20;97849.00;;;20.80
8227;BMP180;4154;48.810;9.012;2022-07-06T11:19:58;97842.00;;;20.80
8227;BMP180;4154;48.810;9.012;2022-07-06T11:22:37;97841.00;;;20.80
8227;BMP180;4154;48.810;9.012;2022-07-06T11:25:05;97839.00;;;20.80
8227;BMP180;4154;48.810;9.012;2022-07-06T11:27:34;97835.00;;;20.80
8227;BMP180;4154;48.810;9.012;2022-07-06T11:30:00;97838.00;;;20.70
8227;BMP180;4154;48.810;9.012;2022-07-06T11:32:27;97838.00;;;20.70
8227;BMP180;4154;48.810;9.012;2022-07-06T11:34:53;97829.00;;;20.70
8227;BMP180;4154;48.810;9.012;2022-07-06T11:37:19;97832.00;;;20.70
8227;BMP180;4154;48.810;9.012;2022-07-06T11:39:47;97833.00;;;20.70
8227;BMP180;4154;48.810;9.012;2022-07-06T11:42:18;97831.00;;;20.80
8227;BMP180;4154;48.810;9.012;2022-07-06T11:44:46;97826.00;;;20.90
8227;BMP180;4154;48.810;9.012;2022-07-06T11:47:13;97826.00;;;21.00
8227;BMP180;4154;48.810;9.012;2022-07-06T11:49:40;97818.00;;;20.90
8227;BMP180;4154;48.810;9.012;2022-07-06T11:52:13;97826.00;;;20.90
8227;BMP180;4154;48.810;9.012;2022-07-06T11:54:40;97828.00;;;21.00
8227;BMP180;4154;48.810;9.012;2022-07-06T11:57:11;97831.00;;;21.20
8227;BMP180;4154;48.810;9.012;2022-07-06T11:59:41;97836.00;;;21.30
8227;BMP180;4154;48.810;9.012;2022-07-06T12:02:14;97831.00;;;21.40
8227;BMP180;4154;48.810;9.012;2022-07-06T12:04:45;97831.00;;;21.60
8227;BMP180;4154;48.810;9.012;2022-07-06T12:07:16;97818.00;;;21.80
8227;BMP180;4154;48.810;9.012;2022-07-06T12:09:45;97818.00;;;21.80
8227;BMP180;4154;48.810;9.012;2022-07-06T12:12:12;97816.00;;;21.80
8227;BMP180;4154;48.810;9.012;2022-07-06T12:14:41;97824.00;;;21.90
8227;BMP180;4154;48.810;9.012;2022-07-06T12:17:12;97822.00;;;22.00
8227;BMP180;4154;48.810;9.012;2022-07-06T12:19:40;97811.00;;;21.90
8227;BMP180;4154;48.810;9.012;2022-07-06T12:22:07;97814.00;;;21.90
8227;BMP180;4154;48.810;9.012;2022-07-06T12:24:35;97804.00;;;21.90
8227;BMP180;4154;48.810;9.012;2022-07-06T12:27:15;97819.00;;;21.70
8227;BMP180;4154;48.810;9.012;2022-07-06T12:29:41;97822.00;;;21.60
8227;BMP180;4154;48.810;9.012;2022-07-06T12:32:22;97818.00;;;21.50
8227;BMP180;4154;48.810;9.012;2022-07-06T12:35:02;97804.00;;;21.40
8227;BMP180;4154;48.810;9.012;2022-07-06T12:37:28;97801.00;;;21.40
8227;BMP180;4154;48.810;9.012;2022-07-06T12:39:54;97805.00;;;21.30
8227;BMP180;4154;48.810;9.012;2022-07-06T12:42:20;97813.00;;;21.30
8227;BMP180;4154;48.810;9.012;2022-07-06T12:44:50;97801.00;;;21.20
8227;BMP180;4154;48.810;9.012;2022-07-06T12:47:22;97818.00;;;21.20
8227;BMP180;4154;48.810;9.012;2022-07-06T12:50:07;97803.00;;;21.40
8227;BMP180;4154;48.810;9.012;2022-07-06T12:52:33;97799.00;;;21.60
8227;BMP180;4154;48.810;9.012;2022-07-06T12:55:01;97790.00;;;21.70
8227;BMP180;4154;48.810;9.012;2022-07-06T12:57:42;97789.00;;;21.80
8227;BMP180;4154;48.810;9.012;2022-07-06T13:00:09;97785.00;;;21.90
8227;BMP180;4154;48.810;9.012;2022-07-06T13:02:35;97788.00;;;21.90
8227;BMP180;4154;48.810;9.012;2022-07-06T13:05:08;97807.00;;;21.80
8227;BMP180;4154;48.810;9.012;2022-07-06T13:07:39;97805.00;;;21.70
8227;BMP180;4154;48.810;9.012;2022-07-06T13:10:12;97806.00;;;21.60
8227;BMP180;4154;48.810;9.012;2022-07-06T13:12:39;97804.00;;;21.60
8227;BMP180;4154;48.810;9.012;2022-07-06T13:15:08;97787.00;;;21.60
8227;BMP180;4154;48.810;9.012;2022-07-06T13:17:35;97797.00;;;21.70
8227;BMP180;4154;48.810;9.012;2022-07-06T13:20:04;97799.00;;;21.70
8227;BMP180;4154;48.810;9.012;2022-07-06T13:22:30;97782.00;;;21.80
8227;BMP180;4154;48.810;9.012;2022-07-06T13:24:56;97786.00;;;21.90
8227;BMP180;4154;48.810;9.012;2022-07-06T13:27:21;97796.00;;;22.10
8227;BMP180;4154;48.810;9.012;2022-07-06T13:29:47;97798.00;;;22.00
8227;BMP180;4154;48.810;9.012;2022-07-06T13:32:13;97789.00;;;22.00
8227;BMP180;4154;48.810;9.012;2022-07-06T13:34:39;97788.00;;;22.10
8227;BMP180;4154;48.810;9.012;2022-07-06T13:37:05;97789.00;;;22.00
8227;BMP180;4154;48.810;9.012;2022-07-06T13:39:32;97787.00;;;22.00
8227;BMP180;4154;48.810;9.012;2022-07-06T13:41:58;97786.00;;;22.00
8227;BMP180;4154;48.810;9.012;2022-07-06T13:44:24;97780.00;;;22.10
8227;BMP180;4154;48.810;9.012;2022-07-06T13:46:51;97781.00;;;22.20
8227;BMP180;4154;48.810;9.012;2022-07-06T13:49:17;97768.00;;;22.40
8227;BMP180;4154;48.810;9.012;2022-07-06T13:51:43;97773.00;;;22.50
8227;BMP180;4154;48.810;9.012;2022-07-06T13:54:10;97765.00;;;22.70
8227;BMP180;4154;48.810;9.012;2022-07-06T13:56:38;97758.00;;;22.70
8227;BMP180;4154;48.810;9.012;2022-07-06T13:59:04;97765.00;;;22.80
8227;BMP180;4154;48.810;9.012;2022-07-06T14:01:31;97769.00;;;22.80
8227;BMP180;4154;48.810;9.012;2022-07-06T14:03:56;97761.00;;;22.80
8227;BMP180;4154;48.810;9.012;2022-07-06T14:06:22;97755.00;;;22.80
8227;BMP180;4154;48.810;9.012;2022-07-06T14:08:48;97761.00;;;22.80
8227;BMP180;4154;48.810;9.012;2022-07-06T14:11:14;97759.00;;;22.70
8227;BMP180;4154;48.810;9.012;2022-07-06T14:13:40;97760.00;;;22.60
8227;BMP180;4154;48.810;9.012;2022-07-06T14:16:07;97760.00;;;22.60
8227;BMP180;4154;48.810;9.012;2022-07-06T14:18:33;97761.00;;;22.70
8227;BMP180;4154;48.810;9.012;2022-07-06T14:20:59;97750.00;;;22.80
8227;BMP180;4154;48.810;9.012;2022-07-06T14:23:26;97751.00;;;22.90
8227;BMP180;4154;48.810;9.012;2022-07-06T14:25:52;97738.00;;;23.10
8227;BMP180;4154;48.810;9.012;2022-07-06T14:28:20;97752.00;;;23.00
8227;BMP180;4154;48.810;9.012;2022-07-06T14:30:46;97741.00;;;23.00
8227;BMP180;4154;48.810;9.012;2022-07-06T14:33:13;97746.00;;;23.00
8227;BMP180;4154;48.810;9.012;2022-07-06T14:35:45;97746.00;;;23.00
8227;BMP180;4154;48.810;9.012;2022-07-06T14:38:14;97747.00;;;23.10